createdAt,value
2017-06-25T00:01:03.215Z,15.90
2017-06-25T00:03:37.264Z,15.30
2017-06-25T00:06:11.412Z,15.00
2017-06-25T00:08:45.730Z,15.47
2017-06-25T00:11:19.939Z,14.53
2017-06-25T00:13:54.480Z,15.37
2017-06-25T00:16:28.556Z,14.77
2017-06-25T00:19:02.671Z,14.87
2017-06-25T00:21:36.936Z,15.70
2017-06-25T00:24:11.140Z,15.67
2017-06-25T00:26:45.355Z,14.37
2017-06-25T00:29:19.607Z,15.93
2017-06-25T00:31:53.944Z,15.53
2017-06-25T00:34:28.213Z,15.87
2017-06-25T00:37:02.389Z,15.17
2017-06-25T00:39:36.721Z,16.60
2017-06-25T00:42:10.841Z,15.40
2017-06-25T00:44:45.061Z,15.20
2017-06-25T00:47:19.175Z,14.43
2017-06-25T00:49:53.224Z,15.10
2017-06-25T00:52:27.385Z,15.93
2017-06-25T00:55:01.568Z,15.33
2017-06-25T00:57:35.948Z,15.07
2017-06-25T01:00:10.147Z,16.03
2017-06-25T01:02:44.596Z,16.30
2017-06-25T01:05:18.838Z,15.60
2017-06-25T01:07:53.103Z,15.27
2017-06-25T01:10:27.253Z,15.90
2017-06-25T01:13:01.460Z,18.00
2017-06-25T01:15:35.876Z,15.77
2017-06-25T01:18:10.061Z,17.03
2017-06-25T01:20:44.427Z,17.20
2017-06-25T01:23:18.808Z,15.87
2017-06-25T01:25:52.940Z,18.03
2017-06-25T01:28:27.249Z,16.30
2017-06-25T01:31:01.591Z,17.00
2017-06-25T01:33:35.778Z,17.07
2017-06-25T01:36:10.213Z,16.50
2017-06-25T01:38:44.480Z,17.97
2017-06-25T01:41:18.656Z,17.27
2017-06-25T01:43:53.054Z,17.20
2017-06-25T01:46:27.339Z,16.83
2017-06-25T01:49:01.420Z,16.87
2017-06-25T01:51:35.733Z,17.73
2017-06-25T01:54:09.831Z,16.80
2017-06-25T01:56:44.051Z,16.70
2017-06-25T01:59:18.228Z,16.60
2017-06-25T02:01:52.488Z,16.83
2017-06-25T02:04:26.672Z,15.87
2017-06-25T02:07:00.925Z,16.83
2017-06-25T02:09:35.341Z,16.50
2017-06-25T02:12:09.463Z,18.37
2017-06-25T02:14:43.749Z,17.70
2017-06-25T02:17:18.152Z,16.43
2017-06-25T02:19:52.234Z,15.00
2017-06-25T02:22:26.559Z,14.90
2017-06-25T02:25:00.576Z,15.90
2017-06-25T02:27:34.944Z,14.77
2017-06-25T02:30:09.117Z,15.13
2017-06-25T02:32:43.245Z,14.20
2017-06-25T02:35:17.416Z,16.83
2017-06-25T02:37:51.634Z,17.07
2017-06-25T02:40:25.747Z,16.47
2017-06-25T02:42:59.968Z,15.77
2017-06-25T02:45:34.076Z,16.27
2017-06-25T02:48:08.275Z,17.00
2017-06-25T02:50:42.554Z,16.50
2017-06-25T02:53:16.700Z,16.97
2017-06-25T02:55:51.043Z,16.87
2017-06-25T02:58:25.101Z,16.90
2017-06-25T03:00:59.292Z,16.97
2017-06-25T03:03:33.471Z,16.90
2017-06-25T03:06:07.957Z,17.00
2017-06-25T03:08:42.710Z,14.80
2017-06-25T03:11:16.882Z,15.40
2017-06-25T03:13:51.127Z,16.47
2017-06-25T03:16:25.292Z,16.30
2017-06-25T03:18:59.460Z,16.67
2017-06-25T03:21:33.635Z,17.03
2017-06-25T03:24:07.735Z,16.33
2017-06-25T03:26:41.939Z,16.20
2017-06-25T03:29:16.232Z,16.50
2017-06-25T03:31:50.435Z,16.30
2017-06-25T03:34:24.964Z,16.33
2017-06-25T03:36:59.168Z,16.27
2017-06-25T03:39:33.607Z,15.77
2017-06-25T03:42:07.727Z,14.63
2017-06-25T03:44:42.004Z,15.70
2017-06-25T03:47:16.142Z,15.30
2017-06-25T03:49:50.560Z,16.33
2017-06-25T03:52:24.592Z,15.47
2017-06-25T03:54:58.914Z,15.90
2017-06-25T03:57:33.023Z,15.60
2017-06-25T04:00:07.200Z,16.00
2017-06-25T04:02:41.336Z,14.00
2017-06-25T04:05:15.607Z,15.10
2017-06-25T04:07:49.683Z,15.53
2017-06-25T04:10:23.824Z,14.50
2017-06-25T04:12:57.975Z,14.60
2017-06-25T04:15:32.023Z,15.70
2017-06-25T04:18:06.325Z,14.20
2017-06-25T04:20:40.464Z,15.03
2017-06-25T04:23:14.622Z,13.07
2017-06-25T04:25:48.749Z,14.77
2017-06-25T04:28:23.036Z,15.40
2017-06-25T04:30:57.064Z,14.20
2017-06-25T04:33:31.538Z,14.70
2017-06-25T04:36:05.744Z,13.13
2017-06-25T04:38:39.985Z,12.50
2017-06-25T04:41:14.075Z,13.10
2017-06-25T04:43:48.600Z,13.50
2017-06-25T04:46:22.752Z,14.87
2017-06-25T04:48:56.964Z,14.10
2017-06-25T04:51:31.030Z,13.53
2017-06-25T04:54:05.239Z,13.33
2017-06-25T04:56:39.476Z,11.80
2017-06-25T04:59:13.649Z,13.40
2017-06-25T05:01:47.872Z,12.33
2017-06-25T05:04:22.026Z,13.33
2017-06-25T05:06:56.222Z,12.77
2017-06-25T05:09:30.331Z,11.83
2017-06-25T05:12:04.604Z,13.30
2017-06-25T05:14:38.814Z,11.00
2017-06-25T05:17:13.032Z,12.07
2017-06-25T05:19:47.108Z,12.10
2017-06-25T05:22:21.078Z,11.50
2017-06-25T05:24:55.387Z,11.10
2017-06-25T05:27:29.669Z,11.40
2017-06-25T05:30:03.696Z,11.70
2017-06-25T05:32:38.182Z,11.87
2017-06-25T05:35:12.427Z,10.80
2017-06-25T05:37:46.824Z,11.37
2017-06-25T05:40:21.029Z,10.70
2017-06-25T05:42:55.053Z,11.47
2017-06-25T05:45:29.068Z,12.00
2017-06-25T05:48:03.300Z,11.13
2017-06-25T05:50:37.568Z,11.80
2017-06-25T05:53:11.721Z,11.60
2017-06-25T05:55:46.260Z,13.83
2017-06-25T05:58:20.507Z,11.40
2017-06-25T06:00:54.689Z,11.57
2017-06-25T06:03:28.948Z,12.03
2017-06-25T06:06:03.115Z,11.33
2017-06-25T06:08:37.159Z,10.03
2017-06-25T06:11:11.296Z,10.00
2017-06-25T06:13:45.542Z,10.70
2017-06-25T06:16:19.602Z,10.10
2017-06-25T06:18:53.887Z,11.40
2017-06-25T06:21:28.116Z,10.07
2017-06-25T06:24:02.368Z,10.10
2017-06-25T06:26:36.517Z,10.90
2017-06-25T06:29:10.544Z,10.00
2017-06-25T06:31:44.792Z,11.00
2017-06-25T06:34:20.408Z,10.27
2017-06-25T06:36:54.561Z,10.30
2017-06-25T06:39:28.667Z,10.27
2017-06-25T06:42:02.919Z,9.40
2017-06-25T06:44:37.113Z,9.27
2017-06-25T06:47:11.180Z,10.13
2017-06-25T06:49:45.396Z,10.13
2017-06-25T06:52:19.723Z,10.27
2017-06-25T06:54:53.753Z,9.00
2017-06-25T06:57:27.815Z,9.50
2017-06-25T07:00:17.002Z,8.87
2017-06-25T07:02:51.228Z,9.57
2017-06-25T07:05:25.460Z,9.40
2017-06-25T07:07:59.857Z,9.83
2017-06-25T07:10:34.027Z,9.20
2017-06-25T07:13:08.195Z,8.90
2017-06-25T07:15:42.392Z,9.17
2017-06-25T07:18:16.691Z,9.10
2017-06-25T07:20:50.798Z,9.53
2017-06-25T07:23:25.312Z,8.50
2017-06-25T07:25:59.321Z,8.43
2017-06-25T07:28:33.451Z,8.40
2017-06-25T07:31:07.628Z,8.17
2017-06-25T07:33:41.703Z,7.80
2017-06-25T07:36:15.777Z,8.00
2017-06-25T07:38:49.943Z,8.00
2017-06-25T07:41:24.068Z,7.63
2017-06-25T07:43:58.181Z,8.70
2017-06-25T07:46:32.265Z,8.60
2017-06-25T07:49:06.338Z,8.83
2017-06-25T07:51:40.476Z,8.47
2017-06-25T07:54:14.494Z,7.63
2017-06-25T07:56:48.651Z,7.07
2017-06-25T07:59:23.056Z,7.33
2017-06-25T08:01:57.209Z,7.40
2017-06-25T08:04:31.304Z,6.87
2017-06-25T08:07:05.459Z,7.70
2017-06-25T08:09:39.706Z,7.47
2017-06-25T08:12:13.906Z,7.03
2017-06-25T08:14:48.267Z,7.57
2017-06-25T08:17:22.467Z,7.00
2017-06-25T08:19:56.771Z,6.73
2017-06-25T08:22:30.819Z,7.30
2017-06-25T08:25:04.957Z,7.87
2017-06-25T08:27:39.200Z,6.67
2017-06-25T08:30:13.445Z,6.80
2017-06-25T08:32:47.647Z,7.30
2017-06-25T08:35:21.767Z,7.90
2017-06-25T08:37:55.857Z,7.83
2017-06-25T08:40:29.890Z,8.00
2017-06-25T08:43:05.116Z,8.00
2017-06-25T08:45:39.256Z,7.97
2017-06-25T08:48:13.423Z,7.60
2017-06-25T08:50:47.444Z,8.00
2017-06-25T08:53:21.496Z,7.87
2017-06-25T08:55:55.801Z,8.33
2017-06-25T08:58:29.960Z,7.60
2017-06-25T09:01:04.088Z,8.10
2017-06-25T09:03:38.300Z,7.60
2017-06-25T09:06:12.319Z,8.33
2017-06-25T09:08:46.324Z,8.53
2017-06-25T09:11:20.640Z,7.80
2017-06-25T09:13:54.858Z,7.13
2017-06-25T09:16:28.895Z,7.27
2017-06-25T09:19:03.096Z,7.80
2017-06-25T09:21:37.104Z,7.90
2017-06-25T09:24:11.263Z,8.30
2017-06-25T09:26:45.466Z,8.97
2017-06-25T09:29:19.696Z,7.80
2017-06-25T09:31:53.926Z,7.40
2017-06-25T09:34:27.977Z,8.77
2017-06-25T09:37:02.324Z,8.10
2017-06-25T09:39:36.353Z,8.83
2017-06-25T09:42:10.359Z,9.33
2017-06-25T09:44:44.492Z,8.80
2017-06-25T09:47:18.599Z,9.27
2017-06-25T09:49:52.718Z,9.73
2017-06-25T09:52:26.831Z,9.57
2017-06-25T09:55:00.923Z,9.40
2017-06-25T09:57:35.137Z,8.50
2017-06-25T10:00:09.293Z,8.50
2017-06-25T10:02:43.475Z,9.07
2017-06-25T10:05:17.504Z,8.70
2017-06-25T10:07:51.823Z,9.10
2017-06-25T10:10:26.002Z,8.90
2017-06-25T10:13:00.148Z,9.07
2017-06-25T10:15:34.185Z,9.37
2017-06-25T10:18:08.377Z,9.30
2017-06-25T10:20:42.580Z,9.73
2017-06-25T10:23:16.761Z,10.03
2017-06-25T10:25:50.935Z,9.77
2017-06-25T10:28:24.970Z,9.90
2017-06-25T10:30:59.147Z,10.37
2017-06-25T10:33:33.279Z,10.40
2017-06-25T10:36:07.355Z,11.63
2017-06-25T10:38:41.536Z,11.00
2017-06-25T10:41:15.696Z,10.50
2017-06-25T10:43:49.875Z,10.67
2017-06-25T10:46:23.900Z,10.23
2017-06-25T10:48:57.940Z,10.53
2017-06-25T10:51:32.130Z,13.27
2017-06-25T10:54:06.098Z,13.67
2017-06-25T10:56:40.152Z,10.97
2017-06-25T10:59:14.185Z,10.23
2017-06-25T11:01:48.347Z,10.60
2017-06-25T11:04:22.443Z,11.00
2017-06-25T11:06:56.605Z,10.03
2017-06-25T11:09:30.604Z,10.70
2017-06-25T11:12:04.627Z,10.60
2017-06-25T11:14:38.808Z,10.40
2017-06-25T11:17:12.849Z,9.77
2017-06-25T11:19:46.919Z,10.60
2017-06-25T11:22:20.965Z,10.27
2017-06-25T11:24:55.172Z,10.90
2017-06-25T11:27:29.176Z,11.27
2017-06-25T11:30:03.336Z,13.67
2017-06-25T11:32:37.389Z,10.43
2017-06-25T11:35:11.666Z,11.40
2017-06-25T11:37:45.739Z,11.70
2017-06-25T11:40:19.817Z,10.83
2017-06-25T11:42:54.032Z,11.00
2017-06-25T11:45:28.213Z,11.53
2017-06-25T11:48:02.444Z,10.90
2017-06-25T11:50:36.494Z,11.40
2017-06-25T11:53:10.853Z,11.80
2017-06-25T11:55:44.867Z,12.03
2017-06-25T11:58:18.911Z,11.93
2017-06-25T12:00:53.301Z,11.20
2017-06-25T12:03:27.391Z,12.40
2017-06-25T12:06:01.415Z,11.90
2017-06-25T12:08:35.548Z,11.70
2017-06-25T12:11:09.796Z,11.70
2017-06-25T12:13:44.076Z,12.10
2017-06-25T12:16:18.170Z,12.00
2017-06-25T12:18:52.406Z,11.57
2017-06-25T12:21:26.511Z,11.90
2017-06-25T12:24:00.694Z,12.00
2017-06-25T12:26:34.772Z,11.53
2017-06-25T12:29:08.869Z,11.90
2017-06-25T12:31:43.121Z,11.30
2017-06-25T12:34:17.254Z,12.40
2017-06-25T12:36:51.468Z,12.83
2017-06-25T12:39:25.618Z,20.00
2017-06-25T12:41:59.938Z,12.07
2017-06-25T12:44:34.221Z,12.40
2017-06-25T12:47:08.373Z,13.60
2017-06-25T12:49:42.639Z,14.90
2017-06-25T12:52:16.752Z,13.63
2017-06-25T12:54:51.061Z,13.50
2017-06-25T12:57:25.356Z,13.87
2017-06-25T12:59:59.664Z,13.13
2017-06-25T13:02:33.797Z,12.90
2017-06-25T13:05:08.103Z,13.20
2017-06-25T13:07:42.293Z,13.90
2017-06-25T13:10:16.381Z,12.20
2017-06-25T13:12:50.456Z,8.20
2017-06-25T13:15:24.479Z,9.30
2017-06-25T13:17:58.672Z,9.40
2017-06-25T13:20:32.784Z,9.50
2017-06-25T13:23:07.003Z,10.80
2017-06-25T13:25:41.108Z,11.40
2017-06-25T13:28:15.278Z,13.00
2017-06-25T13:30:49.408Z,12.03
2017-06-25T13:33:23.434Z,12.93
2017-06-25T13:35:57.635Z,13.83
2017-06-25T13:38:31.656Z,14.37
2017-06-25T13:41:05.816Z,14.20
2017-06-25T13:43:39.842Z,13.47
2017-06-25T13:46:13.991Z,13.20
2017-06-25T13:48:47.961Z,15.10
2017-06-25T13:51:21.983Z,14.73
2017-06-25T13:53:56.264Z,15.17
2017-06-25T13:56:30.232Z,15.30
2017-06-25T13:59:04.430Z,19.20
2017-06-25T14:01:38.471Z,14.60
2017-06-25T14:04:12.719Z,13.80
2017-06-25T14:06:47.013Z,14.37
2017-06-25T14:09:21.069Z,15.47
2017-06-25T14:11:55.446Z,17.23
2017-06-25T14:14:29.638Z,17.67
2017-06-25T14:17:03.677Z,18.83
2017-06-25T14:19:37.895Z,17.83
2017-06-25T14:22:12.089Z,17.33
2017-06-25T14:24:46.306Z,16.77
2017-06-25T14:27:20.540Z,15.23
2017-06-25T14:29:54.684Z,15.97
2017-06-25T14:32:28.868Z,16.30
2017-06-25T14:35:02.853Z,15.80
2017-06-25T14:37:36.898Z,15.40
2017-06-25T14:40:11.074Z,16.97
2017-06-25T14:42:45.123Z,15.10
2017-06-25T14:45:19.167Z,14.83
2017-06-25T14:47:53.326Z,15.30
2017-06-25T14:50:27.357Z,14.60
2017-06-25T14:53:01.350Z,14.80
2017-06-25T14:55:35.459Z,14.13
2017-06-25T14:58:09.578Z,15.50
2017-06-25T15:00:43.589Z,13.00
2017-06-25T15:03:17.647Z,12.97
2017-06-25T15:05:51.944Z,14.57
2017-06-25T15:08:26.070Z,12.90
2017-06-25T15:11:00.255Z,12.67
2017-06-25T15:13:34.394Z,12.47
2017-06-25T15:16:08.604Z,11.83
2017-06-25T15:18:42.749Z,14.67
2017-06-25T15:21:16.821Z,12.70
2017-06-25T15:23:51.213Z,12.30
2017-06-25T15:26:25.751Z,11.47
2017-06-25T15:28:59.881Z,11.87
2017-06-25T15:31:34.338Z,11.67
2017-06-25T15:34:08.663Z,12.00
2017-06-25T15:36:42.731Z,12.23
2017-06-25T15:39:16.990Z,12.00
2017-06-25T15:41:51.292Z,11.60
2017-06-25T15:44:25.701Z,11.47
2017-06-25T15:46:59.801Z,11.17
2017-06-25T15:49:34.072Z,11.73
2017-06-25T15:52:08.341Z,12.03
2017-06-25T15:54:42.641Z,12.13
2017-06-25T15:57:16.873Z,12.13
2017-06-25T15:59:50.912Z,11.50
2017-06-25T16:02:25.104Z,11.80
2017-06-25T16:04:59.231Z,11.17
2017-06-25T16:07:33.396Z,11.53
2017-06-25T16:10:07.605Z,12.23
2017-06-25T16:12:41.971Z,11.17
2017-06-25T16:15:16.224Z,12.00
2017-06-25T16:17:50.354Z,11.07
2017-06-25T16:20:24.395Z,11.47
2017-06-25T16:22:58.435Z,11.57
2017-06-25T16:25:32.510Z,13.40
2017-06-25T16:28:06.776Z,11.03
2017-06-25T16:30:40.838Z,10.43
2017-06-25T16:33:15.088Z,10.47
2017-06-25T16:35:49.397Z,10.30
2017-06-25T16:38:25.118Z,9.53
2017-06-25T16:40:59.161Z,9.00
2017-06-25T16:43:33.488Z,9.43
2017-06-25T16:46:07.625Z,9.03
2017-06-25T16:48:41.711Z,7.97
2017-06-25T16:51:15.928Z,8.00
2017-06-25T16:53:50.096Z,8.80
2017-06-25T16:56:24.137Z,8.50
2017-06-25T16:58:58.270Z,7.73
2017-06-25T17:01:32.515Z,7.17
2017-06-25T17:04:06.677Z,7.17
2017-06-25T17:06:40.805Z,7.67
2017-06-25T17:09:14.892Z,7.93
2017-06-25T17:11:49.154Z,6.93
2017-06-25T17:14:23.336Z,7.37
2017-06-25T17:16:57.508Z,7.57
2017-06-25T17:19:31.465Z,6.93
2017-06-25T17:22:05.660Z,7.50
2017-06-25T17:24:39.787Z,7.10
2017-06-25T17:27:13.911Z,8.40
2017-06-25T17:29:48.118Z,7.83
2017-06-25T17:32:22.425Z,7.47
2017-06-25T17:34:56.673Z,7.43
2017-06-25T17:37:32.120Z,7.30
2017-06-25T17:40:06.274Z,6.77
2017-06-25T17:42:40.508Z,7.47
2017-06-25T17:45:14.626Z,7.17
2017-06-25T17:47:48.677Z,6.73
2017-06-25T17:50:22.727Z,6.10
2017-06-25T17:52:56.944Z,7.37
2017-06-25T17:55:31.087Z,7.30
2017-06-25T17:58:05.425Z,7.17
2017-06-25T18:00:40.157Z,6.60
2017-06-25T18:03:14.514Z,7.20
2017-06-25T18:05:48.671Z,7.67
2017-06-25T18:08:24.264Z,6.70
2017-06-25T18:10:58.522Z,7.63
2017-06-25T18:13:32.757Z,7.37
2017-06-25T18:16:06.954Z,7.27
2017-06-25T18:18:41.008Z,7.60
2017-06-25T18:21:15.181Z,7.60
2017-06-25T18:23:49.393Z,6.77
2017-06-25T18:26:23.739Z,7.30
2017-06-25T18:28:57.947Z,7.27
2017-06-25T18:31:32.115Z,7.47
2017-06-25T18:34:06.265Z,6.17
2017-06-25T18:36:40.312Z,6.73
2017-06-25T18:39:14.503Z,7.50
2017-06-25T18:45:03.637Z,6.80
2017-06-25T18:47:37.620Z,6.23
2017-06-25T18:50:11.953Z,6.90
2017-06-25T18:56:01.076Z,6.20
2017-06-25T18:58:35.297Z,6.80
2017-06-25T19:01:09.453Z,6.83
2017-06-25T19:03:43.455Z,7.10
2017-06-25T19:06:17.672Z,7.00
2017-06-25T19:08:51.750Z,6.70
2017-06-25T19:11:25.803Z,7.77
2017-06-25T19:13:59.948Z,7.60
2017-06-25T19:16:33.993Z,7.20
2017-06-25T19:25:38.500Z,7.50
2017-06-25T19:28:12.721Z,6.70
2017-06-25T19:30:46.821Z,6.93
2017-06-25T19:33:20.910Z,7.63
2017-06-25T19:35:55.092Z,7.50
2017-06-25T19:38:29.213Z,7.83
2017-06-25T19:41:03.352Z,7.13
2017-06-25T19:43:37.582Z,7.00
2017-06-25T19:46:11.906Z,6.83
2017-06-25T19:48:46.030Z,7.27
2017-06-25T19:51:20.182Z,7.37
2017-06-25T19:53:54.523Z,6.73
2017-06-25T19:56:28.772Z,7.10
2017-06-25T19:59:02.860Z,6.77
2017-06-25T20:01:36.955Z,6.40
2017-06-25T20:04:11.209Z,6.17
2017-06-25T20:06:45.272Z,6.47
2017-06-25T20:09:19.382Z,7.13
2017-06-25T20:11:53.589Z,6.80
2017-06-25T20:14:27.762Z,6.63
2017-06-25T20:17:02.064Z,6.90
2017-06-25T20:19:36.097Z,6.50
2017-06-25T20:22:10.257Z,6.27
2017-06-25T20:24:44.507Z,6.50
2017-06-25T20:27:18.524Z,6.70
2017-06-25T20:29:52.719Z,6.17
2017-06-25T20:32:26.741Z,7.10
2017-06-25T20:35:00.935Z,7.57
2017-06-25T20:37:34.946Z,7.40
2017-06-25T20:40:09.148Z,6.90
2017-06-25T20:42:43.317Z,7.23
2017-06-25T20:45:17.484Z,6.60
2017-06-25T20:47:51.677Z,6.90
2017-06-25T20:50:25.939Z,6.60
2017-06-25T20:53:00.009Z,7.20
2017-06-25T20:55:34.965Z,7.20
2017-06-25T20:58:09.257Z,6.37
2017-06-25T21:00:44.810Z,6.90
2017-06-25T21:03:19.101Z,6.93
2017-06-25T21:09:07.876Z,7.40
2017-06-25T21:11:42.074Z,7.57
2017-06-25T21:14:16.128Z,7.40
2017-06-25T21:16:50.268Z,7.10
2017-06-25T21:19:24.408Z,6.90
2017-06-25T21:25:13.293Z,7.70
2017-06-25T21:27:47.609Z,7.10
2017-06-25T21:30:21.658Z,7.13
2017-06-25T21:32:55.893Z,7.63
2017-06-25T21:35:30.052Z,8.43
2017-06-25T21:38:04.654Z,8.40
2017-06-25T21:40:38.833Z,9.03
2017-06-25T21:43:13.039Z,7.87
2017-06-25T21:49:03.332Z,9.50
2017-06-25T21:51:37.455Z,10.40
2017-06-25T21:54:11.706Z,8.53
2017-06-25T21:56:45.892Z,7.63
2017-06-25T21:59:19.933Z,8.70
2017-06-25T22:05:08.672Z,7.83
2017-06-25T22:07:43.025Z,7.80
2017-06-25T22:10:17.211Z,8.10
2017-06-25T22:12:51.234Z,8.70
2017-06-25T22:15:25.368Z,8.67
2017-06-25T22:21:14.625Z,8.30
2017-06-25T22:23:48.640Z,8.93
2017-06-25T22:26:22.869Z,9.37
2017-06-25T22:28:57.057Z,8.97
2017-06-25T22:31:31.203Z,8.30
2017-06-25T22:34:05.399Z,8.20
2017-06-25T22:39:55.123Z,8.57
2017-06-25T22:42:29.351Z,8.20
2017-06-25T22:45:03.619Z,8.27
2017-06-25T22:47:37.949Z,9.00
2017-06-25T22:50:12.064Z,9.10
2017-06-25T22:56:01.101Z,8.90
2017-06-25T22:58:35.415Z,9.30
2017-06-25T23:01:10.729Z,8.70
2017-06-25T23:03:44.913Z,8.30
2017-06-25T23:06:19.047Z,8.20
2017-06-25T23:08:53.272Z,7.60
2017-06-25T23:11:27.274Z,8.47
2017-06-25T23:14:01.311Z,8.77
2017-06-25T23:16:35.324Z,8.37
2017-06-25T23:19:09.520Z,8.20
2017-06-25T23:21:43.767Z,8.33
2017-06-25T23:24:17.881Z,8.10
2017-06-25T23:26:52.076Z,8.60
2017-06-25T23:29:26.283Z,8.03
2017-06-25T23:32:00.495Z,7.93
2017-06-25T23:34:34.536Z,8.17
2017-06-25T23:37:08.964Z,8.63
2017-06-25T23:39:43.247Z,8.50
2017-06-25T23:42:17.291Z,8.20
2017-06-25T23:44:51.484Z,7.90
2017-06-25T23:47:25.592Z,7.70
2017-06-25T23:49:59.679Z,8.00
2017-06-25T23:52:33.723Z,7.70
2017-06-25T23:55:07.909Z,7.93
2017-06-25T23:57:42.033Z,8.60
